Time,TemperatureF,DewpointF,PressureIn,WindDirection,WindDirectionDegrees,WindSpeedMPH,WindSpeedGustMPH,Humidity,HourlyPrecipIn,Conditions,Clouds,dailyrainin,SoftwareType,DateUTC
2013-12-07 00:01:00,50.9,50.1,29.99,WNW,291,0.0,0.0,97,0.01,,---,0.00,VWS V14.01,2013-12-07 05:01:00,
2013-12-07 00:02:00,50.8,50.0,29.99,WNW,291,0.0,0.0,97,0.01,,---,0.00,VWS V14.01,2013-12-07 05:02:00,
2013-12-07 00:07:00,50.7,49.9,30.00,WNW,284,2.0,2.0,97,0.01,,---,0.00,VWS V14.01,2013-12-07 05:07:00,
2013-12-07 00:12:00,50.3,49.5,29.99,WNW,282,0.0,0.0,97,0.00,,---,0.00,VWS V14.01,2013-12-07 05:12:00,
2013-12-07 00:17:00,50.1,49.3,29.99,WNW,283,0.0,0.0,97,0.00,,---,0.00,VWS V14.01,2013-12-07 05:17:00,
2013-12-07 00:22:00,50.0,49.2,29.98,WNW,283,0.0,0.0,97,0.00,,---,0.00,VWS V14.01,2013-12-07 05:22:00,
2013-12-07 00:27:00,50.0,49.2,29.97,WNW,283,0.0,0.0,97,0.00,,---,0.00,VWS V14.01,2013-12-07 05:27:00,
2013-12-07 00:32:00,50.0,49.5,29.96,WNW,283,0.0,0.0,98,0.00,,---,0.00,VWS V14.01,2013-12-07 05:32:00,
2013-12-07 00:37:00,49.9,49.4,29.95,WNW,283,0.0,0.0,98,0.00,,---,0.00,VWS V14.01,2013-12-07 05:37:00,
2013-12-07 00:42:00,50.0,49.5,29.95,WNW,283,0.0,0.0,98,0.00,,---,0.00,VWS V14.01,2013-12-07 05:42:00,
2013-12-07 00:47:00,50.2,49.7,29.95,WNW,283,0.0,0.0,98,0.00,,---,0.00,VWS V14.01,2013-12-07 05:47:00,
2013-12-07 00:52:00,50.6,50.1,29.95,NW,325,0.0,0.0,98,0.00,,---,0.00,VWS V14.01,2013-12-07 05:52:00,
2013-12-07 00:57:00,50.7,50.2,29.96,SE,130,0.0,1.0,98,0.00,,---,0.00,VWS V14.01,2013-12-07 05:57:00,
2013-12-07 01:02:00,50.2,49.7,29.97,ESE,106,0.0,0.0,98,0.00,,---,0.00,VWS V14.01,2013-12-07 06:02:00,
2013-12-07 01:07:00,49.9,49.4,29.97,ESE,104,0.0,0.0,98,0.00,,---,0.00,VWS V14.01,2013-12-07 06:07:00,
2013-12-07 01:12:00,49.7,48.9,29.97,ESE,106,0.0,0.0,97,0.00,,---,0.00,VWS V14.01,2013-12-07 06:12:00,
2013-12-07 01:17:00,49.4,48.6,29.97,SW,232,0.0,1.0,97,0.00,,---,0.00,VWS V14.01,2013-12-07 06:17:00,
2013-12-07 01:22:00,49.0,48.2,29.96,West,261,1.0,1.0,97,0.00,,---,0.00,VWS V14.01,2013-12-07 06:22:00,
2013-12-07 01:27:00,48.7,47.9,29.97,West,271,0.0,0.0,97,0.00,,---,0.00,VWS V14.01,2013-12-07 06:27:00,
2013-12-07 01:32:00,48.4,47.6,29.97,West,271,0.0,0.0,97,0.00,,---,0.00,VWS V14.01,2013-12-07 06:32:00,
2013-12-07 01:37:00,48.3,47.8,29.97,SW,221,0.0,0.0,98,0.00,,---,0.00,VWS V14.01,2013-12-07 06:37:00,
2013-12-07 01:42:00,48.3,47.8,29.97,SW,221,0.0,0.0,98,0.00,,---,0.00,VWS V14.01,2013-12-07 06:42:00,
2013-12-07 01:47:00,48.2,47.7,29.98,SW,221,0.0,0.0,98,0.00,,---,0.00,VWS V14.01,2013-12-07 06:47:00,
2013-12-07 01:52:00,48.2,47.7,29.98,SW,226,0.0,0.0,98,0.00,,---,0.00,VWS V14.01,2013-12-07 06:52:00,
2013-12-07 01:57:00,48.0,47.5,29.98,SW,226,0.0,0.0,98,0.00,,---,0.00,VWS V14.01,2013-12-07 06:57:00,
2013-12-07 02:02:00,48.0,47.5,29.99,SW,226,0.0,0.0,98,0.00,,---,0.00,VWS V14.01,2013-12-07 07:02:00,
2013-12-07 02:07:00,48.0,47.5,30.00,ENE,78,4.0,4.0,98,0.00,,---,0.00,VWS V14.01,2013-12-07 07:07:00,
2013-12-07 02:12:00,48.3,47.8,30.01,SE,139,1.0,1.0,98,0.00,,---,0.00,VWS V14.01,2013-12-07 07:12:00,
2013-12-07 02:17:00,48.2,47.7,30.01,SW,226,1.0,1.0,98,0.00,,---,0.00,VWS V14.01,2013-12-07 07:17:00,
2013-12-07 02:22:00,48.0,47.5,30.02,West,281,0.0,0.0,98,0.00,,---,0.00,VWS V14.01,2013-12-07 07:22:00,
2013-12-07 02:27:00,47.9,47.4,30.03,SSW,204,1.0,1.0,98,0.00,,---,0.00,VWS V14.01,2013-12-07 07:27:00,
2013-12-07 02:32:00,47.9,47.4,30.03,WSW,252,0.0,1.0,98,0.00,,---,0.00,VWS V14.01,2013-12-07 07:32:00,
2013-12-07 02:37:00,47.6,47.1,30.03,SSE,167,2.0,2.0,98,0.00,,---,0.00,VWS V14.01,2013-12-07 07:37:00,
2013-12-07 02:42:00,47.1,46.3,30.04,WSW,256,0.0,1.0,97,0.00,,---,0.00,VWS V14.01,2013-12-07 07:42:00,
2013-12-07 02:47:00,46.5,45.7,30.05,WSW,255,0.0,2.0,97,0.00,,---,0.00,VWS V14.01,2013-12-07 07:47:00,
2013-12-07 02:52:00,46.2,45.4,30.05,West,277,1.0,2.0,97,0.00,,---,0.00,VWS V14.01,2013-12-07 07:52:00,
2013-12-07 02:57:00,45.8,45.0,30.05,West,270,0.0,0.0,97,0.00,,---,0.00,VWS V14.01,2013-12-07 07:57:00,
2013-12-07 03:02:00,45.7,44.9,30.04,West,269,0.0,0.0,97,0.00,,---,0.00,VWS V14.01,2013-12-07 08:02:00,
2013-12-07 03:07:00,45.5,44.7,30.05,West,270,1.0,1.0,97,0.00,,---,0.00,VWS V14.01,2013-12-07 08:07:00,
2013-12-07 03:12:00,45.1,44.3,30.06,WNW,302,1.0,1.0,97,0.00,,---,0.00,VWS V14.01,2013-12-07 08:12:00,
2013-12-07 03:17:00,44.7,43.6,30.06,West,266,0.0,1.0,96,0.00,,---,0.00,VWS V14.01,2013-12-07 08:17:00,
2013-12-07 03:22:00,44.5,43.4,30.05,WNW,292,0.0,0.0,96,0.00,,---,0.00,VWS V14.01,2013-12-07 08:22:00,
2013-12-07 03:27:00,44.3,43.5,30.05,WNW,293,0.0,0.0,97,0.00,,---,0.00,VWS V14.01,2013-12-07 08:27:00,
2013-12-07 03:32:00,44.2,43.4,30.05,WNW,293,0.0,0.0,97,0.00,,---,0.00,VWS V14.01,2013-12-07 08:32:00,
2013-12-07 03:37:00,44.1,43.3,30.06,WNW,290,0.0,0.0,97,0.00,,---,0.00,VWS V14.01,2013-12-07 08:37:00,
2013-12-07 03:42:00,43.7,42.6,30.06,SW,215,0.0,2.0,96,0.00,,---,0.00,VWS V14.01,2013-12-07 08:42:00,
2013-12-07 03:47:00,43.4,42.3,30.06,West,266,0.0,0.0,96,0.00,,---,0.00,VWS V14.01,2013-12-07 08:47:00,
2013-12-07 03:52:00,43.2,42.1,30.06,WSW,252,0.0,1.0,96,0.00,,---,0.00,VWS V14.01,2013-12-07 08:52:00,
2013-12-07 03:57:00,43.1,42.0,30.06,WSW,248,0.0,0.0,96,0.00,,---,0.00,VWS V14.01,2013-12-07 08:57:00,
2013-12-07 04:02:00,42.6,41.0,30.06,SW,231,4.0,4.0,94,0.00,,---,0.00,VWS V14.01,2013-12-07 09:02:00,
2013-12-07 04:07:00,42.2,40.6,30.07,WNW,288,2.0,3.0,94,0.00,,---,0.00,VWS V14.01,2013-12-07 09:07:00,
2013-12-07 04:12:00,42.0,40.4,30.08,SW,226,1.0,4.0,94,0.00,,---,0.00,VWS V14.01,2013-12-07 09:12:00,
2013-12-07 04:17:00,41.8,40.2,30.07,WNW,287,2.0,2.0,94,0.00,,---,0.00,VWS V14.01,2013-12-07 09:17:00,
2013-12-07 04:22:00,41.7,40.4,30.08,WNW,287,1.0,2.0,95,0.00,,---,0.00,VWS V14.01,2013-12-07 09:22:00,
2013-12-07 04:27:00,41.5,40.2,30.08,WNW,285,0.0,3.0,95,0.00,,---,0.00,VWS V14.01,2013-12-07 09:27:00,
2013-12-07 04:32:00,41.3,40.0,30.07,SW,232,1.0,1.0,95,0.00,,---,0.00,VWS V14.01,2013-12-07 09:32:00,
2013-12-07 04:37:00,41.2,39.9,30.08,SSE,160,0.0,1.0,95,0.00,,---,0.00,VWS V14.01,2013-12-07 09:37:00,
2013-12-07 04:42:00,41.1,39.8,30.09,SSE,160,0.0,0.0,95,0.00,,---,0.00,VWS V14.01,2013-12-07 09:42:00,
2013-12-07 04:47:00,41.1,39.8,30.09,SSE,160,0.0,0.0,95,0.00,,---,0.00,VWS V14.01,2013-12-07 09:47:00,
2013-12-07 04:52:00,41.1,39.8,30.09,SSE,161,0.0,0.0,95,0.00,,---,0.00,VWS V14.01,2013-12-07 09:52:00,
2013-12-07 04:57:00,41.0,39.7,30.09,SSE,161,0.0,0.0,95,0.00,,---,0.00,VWS V14.01,2013-12-07 09:57:00,
2013-12-07 05:02:00,41.0,40.0,30.09,SSE,161,0.0,0.0,96,0.00,,---,0.00,VWS V14.01,2013-12-07 10:02:00,
2013-12-07 05:07:00,40.9,39.8,30.09,SSE,160,0.0,0.0,96,0.00,,---,0.00,VWS V14.01,2013-12-07 10:07:00,
2013-12-07 05:12:00,40.8,39.8,30.10,South,181,0.0,0.0,96,0.00,,---,0.00,VWS V14.01,2013-12-07 10:12:00,
2013-12-07 05:17:00,40.8,39.8,30.10,South,181,0.0,0.0,96,0.00,,---,0.00,VWS V14.01,2013-12-07 10:17:00,
2013-12-07 05:22:00,40.7,39.7,30.10,South,183,0.0,0.0,96,0.00,,---,0.00,VWS V14.01,2013-12-07 10:22:00,
2013-12-07 05:27:00,40.5,39.5,30.11,South,181,0.0,0.0,96,0.00,,---,0.00,VWS V14.01,2013-12-07 10:27:00,
2013-12-07 05:32:00,40.4,39.3,30.11,South,183,0.0,0.0,96,0.00,,---,0.00,VWS V14.01,2013-12-07 10:32:00,
2013-12-07 05:37:00,40.3,39.2,30.12,South,181,0.0,0.0,96,0.00,,---,0.00,VWS V14.01,2013-12-07 10:37:00,
2013-12-07 05:42:00,40.1,39.0,30.12,South,181,0.0,0.0,96,0.00,,---,0.00,VWS V14.01,2013-12-07 10:42:00,
2013-12-07 05:47:00,40.1,39.3,30.12,South,181,0.0,0.0,97,0.00,,---,0.00,VWS V14.01,2013-12-07 10:47:00,
2013-12-07 05:52:00,39.9,38.8,30.12,South,183,0.0,0.0,96,0.00,,---,0.00,VWS V14.01,2013-12-07 10:52:00,
2013-12-07 05:57:00,39.6,38.6,30.12,SW,214,0.0,0.0,96,0.00,,---,0.00,VWS V14.01,2013-12-07 10:57:00,
2013-12-07 06:02:00,39.1,38.1,30.13,SW,214,0.0,0.0,96,0.00,,---,0.00,VWS V14.01,2013-12-07 11:02:00,
2013-12-07 06:07:00,39.0,38.2,30.13,SW,214,0.0,0.0,97,0.00,,---,0.00,VWS V14.01,2013-12-07 11:07:00,
2013-12-07 06:12:00,38.9,38.1,30.14,SW,214,0.0,0.0,97,0.00,,---,0.00,VWS V14.01,2013-12-07 11:12:00,
2013-12-07 06:17:00,38.9,38.1,30.14,SW,228,0.0,2.0,97,0.00,,---,0.00,VWS V14.01,2013-12-07 11:17:00,
2013-12-07 06:22:00,38.9,38.1,30.15,SW,228,0.0,0.0,97,0.00,,---,0.00,VWS V14.01,2013-12-07 11:22:00,
2013-12-07 06:27:00,38.9,38.1,30.14,West,274,0.0,2.0,97,0.00,,---,0.00,VWS V14.01,2013-12-07 11:27:00,
2013-12-07 06:32:00,38.8,38.0,30.15,West,274,0.0,1.0,97,0.00,,---,0.00,VWS V14.01,2013-12-07 11:32:00,
2013-12-07 06:37:00,38.7,37.9,30.16,West,274,0.0,0.0,97,0.00,,---,0.00,VWS V14.01,2013-12-07 11:37:00,
2013-12-07 06:42:00,38.7,37.9,30.16,West,273,0.0,0.0,97,0.00,,---,0.00,VWS V14.01,2013-12-07 11:42:00,
2013-12-07 06:47:00,38.6,37.8,30.16,WSW,238,0.0,1.0,97,0.00,,---,0.00,VWS V14.01,2013-12-07 11:47:00,
2013-12-07 06:52:00,38.5,37.5,30.16,West,271,0.0,0.0,96,0.00,,---,0.00,VWS V14.01,2013-12-07 11:52:00,
2013-12-07 06:57:00,38.4,37.4,30.16,West,270,2.0,3.0,96,0.00,,---,0.00,VWS V14.01,2013-12-07 11:57:00,
2013-12-07 07:02:00,38.4,37.4,30.17,WNW,284,1.0,1.0,96,0.00,,---,0.00,VWS V14.01,2013-12-07 12:02:00,
2013-12-07 07:07:00,38.3,37.3,30.17,WNW,290,1.0,1.0,96,0.00,,---,0.00,VWS V14.01,2013-12-07 12:07:00,
2013-12-07 07:12:00,38.3,37.3,30.17,WSW,238,0.0,4.0,96,0.00,,---,0.00,VWS V14.01,2013-12-07 12:12:00,
2013-12-07 07:17:00,38.2,37.2,30.18,WNW,294,1.0,2.0,96,0.00,,---,0.00,VWS V14.01,2013-12-07 12:17:00,
2013-12-07 07:22:00,38.2,36.9,30.18,WNW,290,2.0,3.0,95,0.00,,---,0.00,VWS V14.01,2013-12-07 12:22:00,
2013-12-07 07:27:00,38.1,36.8,30.18,NW,318,0.0,0.0,95,0.00,,---,0.00,VWS V14.01,2013-12-07 12:27:00,
2013-12-07 07:32:00,38.0,37.0,30.19,WNW,290,1.0,1.0,96,0.00,,---,0.00,VWS V14.01,2013-12-07 12:32:00,
2013-12-07 07:37:00,38.0,37.0,30.19,WSW,238,0.0,1.0,96,0.00,,---,0.00,VWS V14.01,2013-12-07 12:37:00,
2013-12-07 07:42:00,37.9,36.9,30.19,SSW,203,0.0,0.0,96,0.00,,---,0.00,VWS V14.01,2013-12-07 12:42:00,
2013-12-07 07:47:00,37.9,36.9,30.20,SW,235,1.0,1.0,96,0.00,,---,0.00,VWS V14.01,2013-12-07 12:47:00,
2013-12-07 07:52:00,37.9,36.9,30.20,West,276,3.0,4.0,96,0.00,,---,0.00,VWS V14.01,2013-12-07 12:52:00,
2013-12-07 07:57:00,37.7,36.7,30.20,West,269,0.0,1.0,96,0.00,,---,0.00,VWS V14.01,2013-12-07 12:57:00,
2013-12-07 08:02:00,37.8,36.8,30.20,WNW,283,4.0,4.0,96,0.00,,---,0.00,VWS V14.01,2013-12-07 13:02:00,
2013-12-07 08:07:00,37.7,36.7,30.20,NW,308,1.0,1.0,96,0.00,,---,0.00,VWS V14.01,2013-12-07 13:07:00,
2013-12-07 08:12:00,37.6,36.6,30.20,SW,235,0.0,4.0,96,0.00,,---,0.00,VWS V14.01,2013-12-07 13:12:00,
2013-12-07 08:17:00,37.6,36.6,30.20,SW,215,0.0,0.0,96,0.00,,---,0.00,VWS V14.01,2013-12-07 13:17:00,
2013-12-07 08:22:00,37.6,36.6,30.21,WSW,245,2.0,3.0,96,0.00,,---,0.00,VWS V14.01,2013-12-07 13:22:00,
2013-12-07 08:27:00,37.6,36.6,30.20,WNW,285,1.0,2.0,96,0.00,,---,0.00,VWS V14.01,2013-12-07 13:27:00,
2013-12-07 08:32:00,37.7,36.7,30.20,West,273,2.0,2.0,96,0.00,,---,0.00,VWS V14.01,2013-12-07 13:32:00,
2013-12-07 08:37:00,37.7,36.7,30.21,SSW,207,1.0,4.0,96,0.00,,---,0.00,VWS V14.01,2013-12-07 13:37:00,
2013-12-07 08:42:00,37.7,36.7,30.21,West,278,0.0,3.0,96,0.00,,---,0.00,VWS V14.01,2013-12-07 13:42:00,
2013-12-07 08:47:00,37.8,36.8,30.22,SW,225,0.0,0.0,96,0.00,,---,0.00,VWS V14.01,2013-12-07 13:47:00,
2013-12-07 08:52:00,37.7,36.4,30.22,SW,218,0.0,2.0,95,0.00,,---,0.00,VWS V14.01,2013-12-07 13:52:00,
2013-12-07 08:57:00,37.8,36.8,30.22,WNW,290,0.0,0.0,96,0.00,,---,0.00,VWS V14.01,2013-12-07 13:57:00,
2013-12-07 09:02:00,37.9,36.9,30.22,West,269,1.0,4.0,96,0.00,,---,0.00,VWS V14.01,2013-12-07 14:02:00,
2013-12-07 09:07:00,37.8,36.8,30.22,WSW,256,0.0,3.0,96,0.00,,---,0.00,VWS V14.01,2013-12-07 14:07:00,
2013-12-07 09:12:00,37.8,36.8,30.22,West,266,0.0,1.0,96,0.00,,---,0.00,VWS V14.01,2013-12-07 14:12:00,
2013-12-07 09:17:00,37.9,36.9,30.22,West,271,0.0,0.0,96,0.00,,---,0.00,VWS V14.01,2013-12-07 14:17:00,
2013-12-07 09:22:00,38.1,37.1,30.23,WSW,252,1.0,1.0,96,0.00,,---,0.00,VWS V14.01,2013-12-07 14:22:00,
2013-12-07 09:27:00,38.4,37.4,30.23,SSW,194,0.0,0.0,96,0.00,,---,0.00,VWS V14.01,2013-12-07 14:27:00,
2013-12-07 09:32:00,38.7,37.7,30.23,SE,129,0.0,1.0,96,0.00,,---,0.00,VWS V14.01,2013-12-07 14:32:00,
2013-12-07 09:37:00,38.5,37.2,30.23,SSW,205,0.0,2.0,95,0.00,,---,0.00,VWS V14.01,2013-12-07 14:37:00,
2013-12-07 09:42:00,38.5,37.2,30.23,South,188,0.0,2.0,95,0.00,,---,0.00,VWS V14.01,2013-12-07 14:42:00,
2013-12-07 09:47:00,38.6,37.6,30.24,SSE,151,0.0,1.0,96,0.00,,---,0.00,VWS V14.01,2013-12-07 14:47:00,
2013-12-07 09:52:00,38.7,37.7,30.24,West,274,0.0,2.0,96,0.00,,---,0.00,VWS V14.01,2013-12-07 14:52:00,
2013-12-07 09:57:00,38.9,37.6,30.24,South,191,0.0,1.0,95,0.00,,---,0.00,VWS V14.01,2013-12-07 14:57:00,
2013-12-07 10:02:00,39.4,38.4,30.24,ESE,120,2.0,2.0,96,0.00,,---,0.00,VWS V14.01,2013-12-07 15:02:00,
2013-12-07 10:07:00,39.6,38.3,30.24,West,260,1.0,1.0,95,0.00,,---,0.00,VWS V14.01,2013-12-07 15:07:00,
2013-12-07 10:12:00,39.7,38.4,30.24,SSW,205,1.0,2.0,95,0.00,,---,0.00,VWS V14.01,2013-12-07 15:12:00,
2013-12-07 10:17:00,39.9,38.6,30.24,SSE,156,0.0,1.0,95,0.00,,---,0.00,VWS V14.01,2013-12-07 15:17:00,
2013-12-07 10:22:00,40.0,38.7,30.25,WNW,301,1.0,1.0,95,0.00,,---,0.00,VWS V14.01,2013-12-07 15:22:00,
2013-12-07 10:27:00,40.0,38.4,30.25,SSW,205,0.0,2.0,94,0.00,,---,0.00,VWS V14.01,2013-12-07 15:27:00,
2013-12-07 10:32:00,39.9,38.3,30.25,West,271,0.0,0.0,94,0.00,,---,0.00,VWS V14.01,2013-12-07 15:32:00,
2013-12-07 10:37:00,40.0,38.4,30.25,WSW,245,0.0,0.0,94,0.00,,---,0.00,VWS V14.01,2013-12-07 15:37:00,
2013-12-07 10:42:00,40.0,38.4,30.26,South,181,0.0,0.0,94,0.00,,---,0.00,VWS V14.01,2013-12-07 15:42:00,
2013-12-07 10:47:00,39.9,38.3,30.26,WSW,239,0.0,1.0,94,0.00,,---,0.00,VWS V14.01,2013-12-07 15:47:00,
2013-12-07 10:52:00,39.8,38.2,30.26,SSW,205,1.0,2.0,94,0.00,,---,0.00,VWS V14.01,2013-12-07 15:52:00,
2013-12-07 10:57:00,39.8,38.5,30.26,East,96,0.0,0.0,95,0.00,,---,0.00,VWS V14.01,2013-12-07 15:57:00,
2013-12-07 11:02:00,39.7,38.1,30.26,West,260,0.0,2.0,94,0.00,,---,0.00,VWS V14.01,2013-12-07 16:02:00,
2013-12-07 11:07:00,39.7,38.4,30.26,SW,226,0.0,1.0,95,0.00,,---,0.00,VWS V14.01,2013-12-07 16:07:00,
2013-12-07 11:12:00,39.9,38.6,30.25,WSW,238,0.0,2.0,95,0.00,,---,0.00,VWS V14.01,2013-12-07 16:12:00,
2013-12-07 11:17:00,40.1,38.8,30.25,South,187,0.0,0.0,95,0.00,,---,0.00,VWS V14.01,2013-12-07 16:17:00,
2013-12-07 11:22:00,40.3,39.0,30.25,SE,140,0.0,0.0,95,0.00,,---,0.00,VWS V14.01,2013-12-07 16:22:00,
2013-12-07 11:27:00,40.5,38.9,30.25,West,271,2.0,6.0,94,0.00,,---,0.00,VWS V14.01,2013-12-07 16:27:00,
2013-12-07 11:32:00,40.4,38.8,30.25,SSE,163,2.0,3.0,94,0.00,,---,0.00,VWS V14.01,2013-12-07 16:32:00,
2013-12-07 11:37:00,40.4,38.5,30.25,South,177,1.0,4.0,93,0.00,,---,0.00,VWS V14.01,2013-12-07 16:37:00,
2013-12-07 11:42:00,40.3,38.7,30.26,SSW,208,0.0,1.0,94,0.00,,---,0.00,VWS V14.01,2013-12-07 16:42:00,
2013-12-07 11:47:00,40.5,38.9,30.25,SSE,156,0.0,1.0,94,0.00,,---,0.00,VWS V14.01,2013-12-07 16:47:00,
2013-12-07 11:52:00,40.4,38.5,30.25,SSW,200,1.0,1.0,93,0.00,,---,0.00,VWS V14.01,2013-12-07 16:52:00,
2013-12-07 11:57:00,40.0,37.9,30.25,WNW,285,1.0,2.0,92,0.00,,---,0.00,VWS V14.01,2013-12-07 16:57:00,
2013-12-07 12:02:00,39.7,38.1,30.25,NNW,339,0.0,1.0,94,0.00,,---,0.00,VWS V14.01,2013-12-07 17:02:00,
2013-12-07 12:07:00,39.7,38.1,30.25,SW,232,0.0,1.0,94,0.00,,---,0.00,VWS V14.01,2013-12-07 17:07:00,
2013-12-07 12:12:00,39.5,37.9,30.25,WSW,249,0.0,1.0,94,0.00,,---,0.00,VWS V14.01,2013-12-07 17:12:00,
2013-12-07 12:17:00,39.6,38.0,30.25,SSW,197,0.0,1.0,94,0.00,,---,0.00,VWS V14.01,2013-12-07 17:17:00,
2013-12-07 12:22:00,39.9,38.3,30.24,West,266,1.0,2.0,94,0.00,,---,0.00,VWS V14.01,2013-12-07 17:22:00,
2013-12-07 12:27:00,40.0,38.1,30.25,SSE,156,0.0,2.0,93,0.00,,---,0.00,VWS V14.01,2013-12-07 17:27:00,
2013-12-07 12:32:00,40.1,38.5,30.24,WSW,250,1.0,2.0,94,0.00,,---,0.00,VWS V14.01,2013-12-07 17:32:00,
2013-12-07 12:37:00,40.1,38.2,30.25,SE,135,0.0,1.0,93,0.00,,---,0.00,VWS V14.01,2013-12-07 17:37:00,
2013-12-07 12:42:00,40.4,38.8,30.24,SSW,208,0.0,0.0,94,0.00,,---,0.00,VWS V14.01,2013-12-07 17:42:00,
2013-12-07 12:47:00,40.7,38.8,30.25,West,264,1.0,2.0,93,0.00,,---,0.00,VWS V14.01,2013-12-07 17:47:00,
2013-12-07 12:52:00,40.6,38.5,30.25,WSW,243,0.0,0.0,92,0.00,,---,0.00,VWS V14.01,2013-12-07 17:52:00,
2013-12-07 12:57:00,40.6,38.7,30.25,West,260,0.0,0.0,93,0.00,,---,0.00,VWS V14.01,2013-12-07 17:57:00,
2013-12-07 13:02:00,40.6,38.5,30.25,SSW,208,2.0,2.0,92,0.00,,---,0.00,VWS V14.01,2013-12-07 18:02:00,
2013-12-07 13:07:00,40.5,38.4,30.24,SSW,212,0.0,2.0,92,0.00,,---,0.00,VWS V14.01,2013-12-07 18:07:00,
2013-12-07 13:12:00,40.3,38.2,30.25,SE,131,1.0,1.0,92,0.00,,---,0.00,VWS V14.01,2013-12-07 18:12:00,
2013-12-07 13:17:00,40.0,37.9,30.25,SSW,193,0.0,0.0,92,0.00,,---,0.00,VWS V14.01,2013-12-07 18:17:00,
2013-12-07 13:22:00,39.8,37.7,30.24,SSE,167,0.0,1.0,92,0.00,,---,0.00,VWS V14.01,2013-12-07 18:22:00,
2013-12-07 13:27:00,39.7,37.8,30.24,SW,222,0.0,1.0,93,0.00,,---,0.00,VWS V14.01,2013-12-07 18:27:00,
2013-12-07 13:32:00,39.5,37.4,30.24,West,262,0.0,1.0,92,0.00,,---,0.00,VWS V14.01,2013-12-07 18:32:00,
2013-12-07 13:37:00,39.5,37.7,30.24,West,271,0.0,2.0,93,0.00,,---,0.00,VWS V14.01,2013-12-07 18:37:00,
2013-12-07 13:42:00,39.5,37.7,30.24,WSW,238,0.0,1.0,93,0.00,,---,0.00,VWS V14.01,2013-12-07 18:42:00,
2013-12-07 13:47:00,39.5,37.7,30.24,SW,228,0.0,0.0,93,0.00,,---,0.00,VWS V14.01,2013-12-07 18:47:00,
2013-12-07 13:52:00,39.7,37.8,30.24,SSE,160,0.0,1.0,93,0.00,,---,0.00,VWS V14.01,2013-12-07 18:52:00,
2013-12-07 13:57:00,39.8,37.7,30.24,SE,146,0.0,1.0,92,0.00,,---,0.00,VWS V14.01,2013-12-07 18:57:00,
2013-12-07 14:02:00,40.0,37.9,30.24,SW,221,0.0,1.0,92,0.00,,---,0.00,VWS V14.01,2013-12-07 19:02:00,
2013-12-07 14:07:00,40.0,37.9,30.24,SSW,210,0.0,0.0,92,0.00,,---,0.00,VWS V14.01,2013-12-07 19:07:00,
2013-12-07 14:12:00,40.2,38.1,30.24,West,274,0.0,0.0,92,0.00,,---,0.00,VWS V14.01,2013-12-07 19:12:00,
2013-12-07 14:17:00,40.4,38.3,30.23,SSW,192,0.0,0.0,92,0.00,,---,0.00,VWS V14.01,2013-12-07 19:17:00,
2013-12-07 14:22:00,40.4,38.0,30.23,West,269,1.0,1.0,91,0.00,,---,0.00,VWS V14.01,2013-12-07 19:22:00,
2013-12-07 14:27:00,40.4,38.3,30.23,West,276,0.0,0.0,92,0.00,,---,0.00,VWS V14.01,2013-12-07 19:27:00,
2013-12-07 14:32:00,40.6,38.2,30.24,WSW,252,0.0,1.0,91,0.00,,---,0.00,VWS V14.01,2013-12-07 19:32:00,
2013-12-07 14:37:00,40.5,38.4,30.24,WSW,250,1.0,1.0,92,0.00,,---,0.00,VWS V14.01,2013-12-07 19:37:00,
2013-12-07 14:42:00,40.6,38.5,30.24,WNW,285,0.0,0.0,92,0.00,,---,0.00,VWS V14.01,2013-12-07 19:42:00,
2013-12-07 14:47:00,40.7,38.6,30.24,SSW,212,0.0,1.0,92,0.00,,---,0.00,VWS V14.01,2013-12-07 19:47:00,
2013-12-07 14:52:00,40.8,38.7,30.24,WSW,248,1.0,1.0,92,0.00,,---,0.00,VWS V14.01,2013-12-07 19:52:00,
2013-12-07 14:57:00,40.9,38.5,30.24,SSW,201,0.0,0.0,91,0.00,,---,0.00,VWS V14.01,2013-12-07 19:57:00,
2013-12-07 15:02:00,40.8,38.4,30.24,WNW,290,0.0,1.0,91,0.00,,---,0.00,VWS V14.01,2013-12-07 20:02:00,
2013-12-07 15:07:00,40.8,38.7,30.24,SSW,201,0.0,0.0,92,0.00,,---,0.00,VWS V14.01,2013-12-07 20:07:00,
2013-12-07 15:12:00,40.9,38.5,30.24,SW,225,0.0,0.0,91,0.00,,---,0.00,VWS V14.01,2013-12-07 20:12:00,
2013-12-07 15:17:00,41.0,38.6,30.24,SSW,207,0.0,1.0,91,0.00,,---,0.00,VWS V14.01,2013-12-07 20:17:00,
2013-12-07 15:22:00,41.1,38.7,30.25,WSW,255,0.0,0.0,91,0.00,,---,0.00,VWS V14.01,2013-12-07 20:22:00,
2013-12-07 15:27:00,41.2,38.8,30.24,SSW,204,0.0,0.0,91,0.00,,---,0.00,VWS V14.01,2013-12-07 20:27:00,
2013-12-07 15:32:00,41.2,39.1,30.24,WSW,248,1.0,1.0,92,0.00,,---,0.00,VWS V14.01,2013-12-07 20:32:00,
2013-12-07 15:37:00,41.2,38.8,30.24,WSW,249,0.0,1.0,91,0.00,,---,0.00,VWS V14.01,2013-12-07 20:37:00,
2013-12-07 15:42:00,41.1,38.7,30.24,West,266,0.0,0.0,91,0.00,,---,0.00,VWS V14.01,2013-12-07 20:42:00,
2013-12-07 15:47:00,41.1,38.7,30.24,South,182,0.0,0.0,91,0.00,,---,0.00,VWS V14.01,2013-12-07 20:47:00,
2013-12-07 15:52:00,41.2,39.1,30.25,SW,224,0.0,0.0,92,0.00,,---,0.00,VWS V14.01,2013-12-07 20:52:00,
2013-12-07 15:57:00,41.2,38.8,30.25,WSW,241,0.0,1.0,91,0.00,,---,0.00,VWS V14.01,2013-12-07 20:57:00,
2013-12-07 16:02:00,41.1,38.7,30.25,WSW,252,1.0,1.0,91,0.00,,---,0.00,VWS V14.01,2013-12-07 21:02:00,
2013-12-07 16:07:00,41.0,38.6,30.25,SW,214,0.0,0.0,91,0.00,,---,0.00,VWS V14.01,2013-12-07 21:07:00,
2013-12-07 16:12:00,41.0,38.9,30.26,SW,221,0.0,1.0,92,0.00,,---,0.00,VWS V14.01,2013-12-07 21:12:00,
2013-12-07 16:17:00,40.9,38.5,30.26,South,174,0.0,0.0,91,0.00,,---,0.00,VWS V14.01,2013-12-07 21:17:00,
2013-12-07 16:22:00,40.8,38.4,30.26,West,271,0.0,1.0,91,0.00,,---,0.00,VWS V14.01,2013-12-07 21:22:00,
2013-12-07 16:27:00,40.6,38.5,30.26,West,260,0.0,0.0,92,0.00,,---,0.00,VWS V14.01,2013-12-07 21:27:00,
2013-12-07 16:32:00,40.4,38.3,30.27,West,262,0.0,0.0,92,0.00,,---,0.00,VWS V14.01,2013-12-07 21:32:00,
2013-12-07 16:37:00,40.4,38.3,30.27,West,278,0.0,2.0,92,0.00,,---,0.00,VWS V14.01,2013-12-07 21:37:00,
2013-12-07 16:42:00,40.3,38.4,30.27,WSW,256,0.0,1.0,93,0.00,,---,0.00,VWS V14.01,2013-12-07 21:42:00,
2013-12-07 16:47:00,40.2,38.3,30.27,WSW,250,1.0,1.0,93,0.00,,---,0.00,VWS V14.01,2013-12-07 21:47:00,
2013-12-07 16:52:00,40.0,38.1,30.27,East,96,0.0,0.0,93,0.00,,---,0.00,VWS V14.01,2013-12-07 21:52:00,
2013-12-07 16:57:00,39.9,38.0,30.27,SW,232,0.0,0.0,93,0.00,,---,0.00,VWS V14.01,2013-12-07 21:57:00,
2013-12-07 17:02:00,39.7,37.6,30.27,SW,218,0.0,0.0,92,0.00,,---,0.00,VWS V14.01,2013-12-07 22:02:00,
2013-12-07 17:07:00,39.5,37.7,30.27,SSW,205,0.0,0.0,93,0.00,,---,0.00,VWS V14.01,2013-12-07 22:07:00,
2013-12-07 17:12:00,39.4,37.5,30.28,SSW,206,0.0,0.0,93,0.00,,---,0.00,VWS V14.01,2013-12-07 22:12:00,
2013-12-07 17:17:00,39.3,37.5,30.28,SSW,207,0.0,0.0,93,0.00,,---,0.00,VWS V14.01,2013-12-07 22:17:00,
2013-12-07 17:22:00,39.2,37.3,30.28,SW,218,0.0,0.0,93,0.00,,---,0.00,VWS V14.01,2013-12-07 22:22:00,
2013-12-07 17:27:00,39.1,37.2,30.28,SSW,204,0.0,0.0,93,0.00,,---,0.00,VWS V14.01,2013-12-07 22:27:00,
2013-12-07 17:32:00,38.9,37.0,30.28,SW,232,0.0,0.0,93,0.00,,---,0.00,VWS V14.01,2013-12-07 22:32:00,
2013-12-07 17:37:00,38.7,37.1,30.28,SW,232,0.0,1.0,94,0.00,,---,0.00,VWS V14.01,2013-12-07 22:37:00,
2013-12-07 17:42:00,38.5,36.9,30.28,SW,232,0.0,1.0,94,0.00,,---,0.00,VWS V14.01,2013-12-07 22:42:00,
2013-12-07 17:47:00,38.3,36.7,30.28,SW,222,0.0,0.0,94,0.00,,---,0.00,VWS V14.01,2013-12-07 22:47:00,
2013-12-07 17:52:00,38.2,36.6,30.28,SW,222,0.0,0.0,94,0.00,,---,0.00,VWS V14.01,2013-12-07 22:52:00,
2013-12-07 17:57:00,38.2,36.9,30.28,SW,222,0.0,0.0,95,0.00,,---,0.00,VWS V14.01,2013-12-07 22:57:00,
2013-12-07 18:02:00,38.2,36.9,30.29,SW,223,0.0,0.0,95,0.00,,---,0.00,VWS V14.01,2013-12-07 23:02:00,
2013-12-07 18:07:00,38.2,36.9,30.29,SW,222,0.0,1.0,95,0.00,,---,0.00,VWS V14.01,2013-12-07 23:07:00,
2013-12-07 18:12:00,38.1,36.8,30.29,SW,222,0.0,0.0,95,0.00,,---,0.00,VWS V14.01,2013-12-07 23:12:00,
2013-12-07 18:17:00,38.0,36.7,30.30,SW,222,0.0,1.0,95,0.00,,---,0.00,VWS V14.01,2013-12-07 23:17:00,
2013-12-07 18:22:00,38.0,36.7,30.30,SW,222,0.0,0.0,95,0.00,,---,0.00,VWS V14.01,2013-12-07 23:22:00,
2013-12-07 18:27:00,38.0,36.7,30.30,SW,222,0.0,0.0,95,0.00,,---,0.00,VWS V14.01,2013-12-07 23:27:00,
2013-12-07 18:32:00,37.9,36.6,30.30,SW,222,0.0,0.0,95,0.00,,---,0.00,VWS V14.01,2013-12-07 23:32:00,
2013-12-07 18:37:00,37.9,36.6,30.31,SW,222,0.0,0.0,95,0.00,,---,0.00,VWS V14.01,2013-12-07 23:37:00,
2013-12-07 18:42:00,37.8,36.5,30.31,SW,222,1.0,1.0,95,0.00,,---,0.00,VWS V14.01,2013-12-07 23:42:00,
2013-12-07 18:47:00,37.7,36.4,30.31,SW,222,0.0,0.0,95,0.00,,---,0.00,VWS V14.01,2013-12-07 23:47:00,
2013-12-07 18:52:00,37.7,36.4,30.31,West,265,0.0,1.0,95,0.00,,---,0.00,VWS V14.01,2013-12-07 23:52:00,
2013-12-07 18:57:00,37.5,36.2,30.31,WSW,248,0.0,1.0,95,0.00,,---,0.00,VWS V14.01,2013-12-07 23:57:00,
2013-12-07 19:02:00,37.4,36.4,30.31,WSW,248,0.0,0.0,96,0.00,,---,0.00,VWS V14.01,2013-12-08 00:02:00,
2013-12-07 19:07:00,37.4,36.4,30.31,WSW,249,0.0,0.0,96,0.00,,---,0.00,VWS V14.01,2013-12-08 00:07:00,
2013-12-07 19:12:00,37.4,36.4,30.31,WSW,249,0.0,0.0,96,0.00,,---,0.00,VWS V14.01,2013-12-08 00:12:00,
2013-12-07 19:17:00,37.3,36.3,30.32,WSW,249,0.0,0.0,96,0.00,,---,0.00,VWS V14.01,2013-12-08 00:17:00,
2013-12-07 19:22:00,37.3,36.3,30.32,WSW,249,0.0,0.0,96,0.00,,---,0.00,VWS V14.01,2013-12-08 00:22:00,
2013-12-07 19:27:00,37.3,36.3,30.32,WSW,249,0.0,0.0,96,0.00,,---,0.00,VWS V14.01,2013-12-08 00:27:00,
2013-12-07 19:32:00,37.5,36.5,30.32,WSW,249,0.0,0.0,96,0.00,,---,0.00,VWS V14.01,2013-12-08 00:32:00,
2013-12-07 19:37:00,37.5,36.5,30.32,WSW,249,0.0,0.0,96,0.00,,---,0.00,VWS V14.01,2013-12-08 00:37:00,
2013-12-07 19:42:00,37.5,36.5,30.32,WNW,285,0.0,1.0,96,0.00,,---,0.00,VWS V14.01,2013-12-08 00:42:00,
2013-12-07 19:47:00,37.3,36.3,30.32,WNW,285,0.0,0.0,96,0.00,,---,0.00,VWS V14.01,2013-12-08 00:47:00,
2013-12-07 19:52:00,37.3,36.3,30.32,WNW,285,0.0,0.0,96,0.00,,---,0.00,VWS V14.01,2013-12-08 00:52:00,
2013-12-07 19:57:00,37.3,36.3,30.33,WNW,285,0.0,0.0,96,0.00,,---,0.00,VWS V14.01,2013-12-08 00:57:00,
2013-12-07 20:02:00,37.3,36.3,30.33,West,269,0.0,1.0,96,0.00,,---,0.00,VWS V14.01,2013-12-08 01:02:00,
2013-12-07 20:07:00,37.2,36.2,30.33,West,269,0.0,0.0,96,0.00,,---,0.00,VWS V14.01,2013-12-08 01:07:00,
2013-12-07 20:12:00,37.2,36.2,30.33,West,269,0.0,0.0,96,0.00,,---,0.00,VWS V14.01,2013-12-08 01:12:00,
2013-12-07 20:17:00,37.2,36.2,30.33,West,269,0.0,0.0,96,0.00,,---,0.00,VWS V14.01,2013-12-08 01:17:00,
2013-12-07 20:22:00,37.1,36.1,30.33,West,264,0.0,0.0,96,0.00,,---,0.00,VWS V14.01,2013-12-08 01:22:00,
2013-12-07 20:27:00,37.1,36.1,30.33,WSW,238,0.0,0.0,96,0.00,,---,0.00,VWS V14.01,2013-12-08 01:27:00,
2013-12-07 20:32:00,37.1,36.3,30.33,WSW,238,0.0,0.0,97,0.00,,---,0.00,VWS V14.01,2013-12-08 01:32:00,
2013-12-07 20:37:00,37.1,36.3,30.33,WSW,238,0.0,0.0,97,0.00,,---,0.00,VWS V14.01,2013-12-08 01:37:00,
2013-12-07 20:42:00,37.1,36.3,30.33,WSW,238,0.0,0.0,97,0.00,,---,0.00,VWS V14.01,2013-12-08 01:42:00,
2013-12-07 20:47:00,37.2,36.4,30.33,SW,234,0.0,1.0,97,0.00,,---,0.00,VWS V14.01,2013-12-08 01:47:00,
2013-12-07 20:52:00,37.1,36.3,30.33,WSW,238,0.0,0.0,97,0.00,,---,0.00,VWS V14.01,2013-12-08 01:52:00,
2013-12-07 20:57:00,37.0,36.2,30.33,WSW,250,0.0,0.0,97,0.00,,---,0.00,VWS V14.01,2013-12-08 01:57:00,